createdAt,value
2019-01-05T00:01:50.409Z,102678.98
2019-01-05T00:04:46.083Z,102663.06
2019-01-05T00:07:54.537Z,102659.29
2019-01-05T00:10:55.949Z,102659.54
2019-01-05T00:14:04.452Z,102647.85
2019-01-05T00:17:05.642Z,102653.23
2019-01-05T00:20:14.186Z,102647.66
2019-01-05T00:23:21.581Z,102648.10
2019-01-05T00:26:11.015Z,102645.14
2019-01-05T00:32:45.548Z,102632.27
2019-01-05T00:38:46.638Z,102622.86
2019-01-05T00:45:04.453Z,102624.59
2019-01-05T00:48:33.326Z,102617.33
2019-01-05T00:52:02.277Z,102623.05
2019-01-05T00:55:00.219Z,102612.73
2019-01-05T00:58:01.019Z,102614.94
2019-01-05T01:01:09.603Z,102609.11
2019-01-05T01:04:10.906Z,102614.27
2019-01-05T01:07:00.220Z,102613.41
2019-01-05T01:09:58.466Z,102622.05
2019-01-05T01:12:50.751Z,102629.44
2019-01-05T01:15:56.735Z,102626.98
2019-01-05T01:18:44.427Z,102629.87
2019-01-05T01:21:25.363Z,102624.31
2019-01-05T01:24:09.793Z,102624.75
2019-01-05T01:26:49.344Z,102629.05
2019-01-05T01:29:29.682Z,102627.03
2019-01-05T01:32:22.119Z,102619.70
2019-01-05T01:35:10.196Z,102621.06
2019-01-05T01:38:37.377Z,102620.70
2019-01-05T01:41:39.073Z,102617.72
2019-01-05T01:44:37.829Z,102612.42
2019-01-05T01:47:35.534Z,102613.27
2019-01-05T01:50:28.185Z,102608.20
2019-01-05T01:53:23.862Z,102603.51
2019-01-05T01:56:16.989Z,102600.14
2019-01-05T01:59:25.491Z,102598.35
2019-01-05T02:02:26.811Z,102591.84
2019-01-05T02:05:14.822Z,102596.27
2019-01-05T02:08:13.080Z,102589.05
2019-01-05T02:11:12.689Z,102581.27
2019-01-05T02:14:10.387Z,102578.36
2019-01-05T02:17:13.193Z,102578.80
2019-01-05T02:20:36.643Z,102572.84
2019-01-05T02:24:13.766Z,102569.42
2019-01-05T02:28:14.078Z,102564.28
2019-01-05T02:32:11.262Z,102558.28
2019-01-05T02:35:59.888Z,102566.59
2019-01-05T02:39:34.074Z,102559.42
2019-01-05T02:43:10.389Z,102540.62
2019-01-05T02:46:44.950Z,102540.58
2019-01-05T02:50:52.043Z,102537.06
2019-01-05T02:54:47.115Z,102522.95
2019-01-05T02:58:29.500Z,102516.11
2019-01-05T03:02:14.014Z,102512.30
2019-01-05T03:05:58.387Z,102527.80
2019-01-05T03:09:49.352Z,102524.91
2019-01-05T03:13:36.280Z,102517.61
2019-01-05T03:17:35.450Z,102503.42
2019-01-05T03:21:14.245Z,102502.59
2019-01-05T03:25:03.245Z,102493.69
2019-01-05T03:28:46.973Z,102486.84
2019-01-05T03:32:43.318Z,102481.29
2019-01-05T03:36:41.123Z,102481.27
2019-01-05T03:40:32.302Z,102476.62
2019-01-05T03:44:11.345Z,102464.58
2019-01-05T03:48:07.539Z,102455.08
2019-01-05T03:51:38.120Z,102448.30
2019-01-05T03:55:56.429Z,102450.06
2019-01-05T03:59:40.721Z,102452.38
2019-01-05T04:03:30.710Z,102451.91
2019-01-05T04:07:07.718Z,102444.72
2019-01-05T04:10:50.929Z,102444.37
2019-01-05T04:14:31.143Z,102444.00
2019-01-05T04:18:17.993Z,102437.16
2019-01-05T04:21:40.130Z,102425.55
2019-01-05T04:28:42.878Z,102419.20
2019-01-05T04:32:29.729Z,102403.37
2019-01-05T04:35:51.065Z,102403.37
2019-01-05T04:39:37.650Z,102392.25
2019-01-05T04:43:00.436Z,102401.78
2019-01-05T04:46:46.973Z,102404.34
2019-01-05T04:50:09.539Z,102406.99
2019-01-05T04:53:11.757Z,102396.66
2019-01-05T04:56:56.081Z,102379.48
2019-01-05T05:00:17.506Z,102386.84
2019-01-05T05:04:10.125Z,102374.80
2019-01-05T05:07:45.957Z,102378.19
2019-01-05T05:11:10.518Z,102370.05
2019-01-05T05:14:46.248Z,102370.52
2019-01-05T05:18:38.672Z,102364.14
2019-01-05T05:22:31.273Z,102370.61
2019-01-05T05:26:13.919Z,102371.03
2019-01-05T05:30:15.697Z,102367.59
2019-01-05T05:34:06.740Z,102361.57
2019-01-05T05:37:48.865Z,102350.44
2019-01-05T05:45:26.296Z,102353.48
2019-01-05T05:48:34.333Z,102364.31
2019-01-05T05:55:57.921Z,102365.25
2019-01-05T05:59:50.100Z,102362.73
2019-01-05T06:03:58.627Z,102366.63
2019-01-05T06:08:14.372Z,102363.22
2019-01-05T06:11:59.903Z,102369.28
2019-01-05T06:15:57.059Z,102368.89
2019-01-05T06:19:51.155Z,102360.38
2019-01-05T06:23:23.601Z,102361.27
2019-01-05T06:27:15.714Z,102369.09
2019-01-05T06:30:46.908Z,102362.27
2019-01-05T06:34:08.449Z,102357.16
2019-01-05T06:38:02.332Z,102350.30
2019-01-05T06:41:25.459Z,102364.12
2019-01-05T06:45:05.389Z,102360.36
2019-01-05T06:48:26.360Z,102361.18
2019-01-05T06:55:20.755Z,102359.95
2019-01-05T06:58:59.885Z,102363.41
2019-01-05T07:02:48.170Z,102361.26
2019-01-05T07:06:34.769Z,102365.61
2019-01-05T07:10:08.350Z,102366.94
2019-01-05T07:13:39.243Z,102374.25
2019-01-05T07:20:47.824Z,102395.86
2019-01-05T07:24:34.422Z,102379.06
2019-01-05T07:27:55.987Z,102382.05
2019-01-05T07:31:43.342Z,102375.55
2019-01-05T07:34:53.091Z,102378.17
2019-01-05T07:38:39.706Z,102376.02
2019-01-05T07:42:00.842Z,102382.95
2019-01-05T07:45:47.403Z,102390.28
2019-01-05T07:49:07.372Z,102400.99
2019-01-05T07:52:54.101Z,102399.74
2019-01-05T07:56:07.648Z,102402.76
2019-01-05T08:03:11.646Z,102407.45
2019-01-05T08:10:37.885Z,102415.69
2019-01-05T08:14:00.702Z,102402.87
2019-01-05T08:17:25.203Z,102412.34
2019-01-05T08:21:08.667Z,102392.11
2019-01-05T08:27:59.375Z,102398.52
2019-01-05T08:31:19.904Z,102391.58
2019-01-05T08:35:06.479Z,102397.70
2019-01-05T08:38:26.585Z,102398.72
2019-01-05T08:42:13.196Z,102398.59
2019-01-05T08:45:34.576Z,102402.94
2019-01-05T08:48:54.458Z,102408.92
2019-01-05T08:52:29.927Z,102411.22
2019-01-05T08:56:24.747Z,102414.70
2019-01-05T09:00:23.367Z,102406.88
2019-01-05T09:03:58.411Z,102415.86
2019-01-05T09:07:29.712Z,102423.98
2019-01-05T09:11:17.611Z,102420.56
2019-01-05T09:15:03.402Z,102417.92
2019-01-05T09:18:45.252Z,102422.20
2019-01-05T09:22:43.475Z,102424.73
2019-01-05T09:26:25.868Z,102425.20
2019-01-05T09:29:57.381Z,102425.63
2019-01-05T09:33:41.011Z,102425.61
2019-01-05T09:37:43.681Z,102429.91
2019-01-05T09:41:37.698Z,102420.44
2019-01-05T09:45:33.004Z,102415.28
2019-01-05T09:49:23.019Z,102421.30
2019-01-05T09:53:09.203Z,102422.15
2019-01-05T09:56:48.370Z,102427.38
2019-01-05T10:00:46.687Z,102422.20
2019-01-05T10:04:54.714Z,102422.63
2019-01-05T10:08:52.401Z,102424.84
2019-01-05T10:12:42.185Z,102428.32
2019-01-05T10:16:53.186Z,102415.41
2019-01-05T10:21:02.205Z,102418.45
2019-01-05T10:24:41.570Z,102417.98
2019-01-05T10:28:20.789Z,102413.74
2019-01-05T10:32:11.713Z,102412.87
2019-01-05T10:35:37.743Z,102396.02
2019-01-05T10:39:21.011Z,102398.12
2019-01-05T10:43:28.737Z,102394.77
2019-01-05T10:47:16.353Z,102397.84
2019-01-05T10:51:04.351Z,102398.72
2019-01-05T10:54:52.688Z,102389.25
2019-01-05T10:58:49.533Z,102397.41
2019-01-05T11:03:05.142Z,102392.70
2019-01-05T11:06:53.863Z,102389.25
2019-01-05T11:10:25.211Z,102381.09
2019-01-05T11:14:20.015Z,102373.78
2019-01-05T11:18:10.983Z,102374.30
2019-01-05T11:22:01.278Z,102369.50
2019-01-05T11:25:42.346Z,102366.49
2019-01-05T11:29:36.491Z,102372.14
2019-01-05T11:33:12.559Z,102370.42
2019-01-05T11:37:14.942Z,102372.55
2019-01-05T11:41:02.764Z,102367.83
2019-01-05T11:44:36.189Z,102365.66
2019-01-05T11:48:32.874Z,102369.14
2019-01-05T11:52:29.872Z,102359.73
2019-01-05T11:56:30.000Z,102358.95
2019-01-05T12:00:38.851Z,102359.00
2019-01-05T12:04:32.585Z,102351.66
2019-01-05T12:08:32.266Z,102346.95
2019-01-05T12:12:17.116Z,102349.53
2019-01-05T12:15:55.057Z,102340.01
2019-01-05T12:19:53.679Z,102338.34
2019-01-05T12:23:39.220Z,102346.95
2019-01-05T12:27:25.903Z,102344.83
2019-01-05T12:31:05.305Z,102343.07
2019-01-05T12:35:09.088Z,102344.77
2019-01-05T12:39:01.429Z,102342.60
2019-01-05T12:43:07.675Z,102341.77
2019-01-05T12:46:57.553Z,102337.47
2019-01-05T12:51:03.773Z,102335.66
2019-01-05T12:55:11.326Z,102341.67
2019-01-05T12:59:17.797Z,102336.95
2019-01-05T13:03:04.883Z,102338.66
2019-01-05T13:07:06.128Z,102334.83
2019-01-05T13:11:04.823Z,102339.55
2019-01-05T13:15:07.664Z,102340.48
2019-01-05T13:19:28.001Z,102341.81
2019-01-05T13:23:39.523Z,102341.73
2019-01-05T13:27:27.907Z,102331.73
2019-01-05T13:31:17.009Z,102339.50
2019-01-05T13:35:11.256Z,102339.08
2019-01-05T13:39:37.945Z,102348.97
2019-01-05T13:43:30.366Z,102349.38
2019-01-05T13:47:27.893Z,102348.55
2019-01-05T13:51:29.237Z,102352.89
2019-01-05T13:54:38.625Z,102348.97
2019-01-05T13:57:29.942Z,102360.67
2019-01-05T14:00:15.671Z,102363.72
2019-01-05T14:03:21.378Z,102360.25
2019-01-05T14:06:14.538Z,102371.00
2019-01-05T14:09:02.051Z,102372.71
2019-01-05T14:12:00.247Z,102374.80
2019-01-05T14:14:58.795Z,102374.73
2019-01-05T14:17:54.367Z,102375.20
2019-01-05T14:20:42.022Z,102382.48
2019-01-05T14:23:36.959Z,102382.06
2019-01-05T14:26:33.323Z,102380.67
2019-01-05T14:29:21.362Z,102387.55
2019-01-05T14:32:19.765Z,102394.83
2019-01-05T14:35:11.198Z,102396.94
2019-01-05T14:38:12.232Z,102399.06
2019-01-05T14:41:01.444Z,102402.06
2019-01-05T14:44:10.009Z,102404.64
2019-01-05T14:46:58.221Z,102407.17
2019-01-05T14:49:47.448Z,102416.69
2019-01-05T14:52:55.997Z,102413.64
2019-01-05T14:55:57.126Z,102413.21
2019-01-05T14:59:05.559Z,102423.16
2019-01-05T15:02:06.867Z,102422.69
2019-01-05T15:05:09.345Z,102414.50
2019-01-05T15:07:58.806Z,102417.09
2019-01-05T15:11:05.647Z,102420.02
2019-01-05T15:14:14.093Z,102421.32
2019-01-05T15:17:18.109Z,102423.44
2019-01-05T15:20:22.268Z,102421.24
2019-01-05T15:23:02.893Z,102421.66
2019-01-05T15:25:57.699Z,102419.96
2019-01-05T15:28:58.581Z,102420.72
2019-01-05T15:31:45.560Z,102424.13
2019-01-05T15:34:32.810Z,102421.59
2019-01-05T15:37:34.362Z,102425.88
2019-01-05T15:40:27.590Z,102417.66
2019-01-05T15:43:32.082Z,102425.40
2019-01-05T15:46:19.523Z,102425.33
2019-01-05T15:49:06.442Z,102426.22
2019-01-05T15:52:10.568Z,102418.41
2019-01-05T15:55:08.658Z,102423.57
2019-01-05T15:58:07.444Z,102429.55
2019-01-05T16:01:08.836Z,102430.37
2019-01-05T16:03:58.394Z,102427.44
2019-01-05T16:07:02.645Z,102433.02
2019-01-05T16:09:54.727Z,102435.55
2019-01-05T16:12:42.460Z,102442.00
2019-01-05T16:15:30.078Z,102443.70
2019-01-05T16:18:17.918Z,102449.34
2019-01-05T16:21:19.837Z,102448.88
2019-01-05T16:24:04.763Z,102448.84
2019-01-05T16:26:59.201Z,102447.98
2019-01-05T16:29:56.984Z,102451.38
2019-01-05T16:32:58.024Z,102453.61
2019-01-05T16:35:42.953Z,102454.92
2019-01-05T16:38:27.777Z,102448.86
2019-01-05T16:41:17.310Z,102444.05
2019-01-05T16:44:04.957Z,102442.75
2019-01-05T16:47:01.570Z,102442.74
2019-01-05T16:50:06.155Z,102449.27
2019-01-05T16:52:54.051Z,102444.85
2019-01-05T16:55:51.990Z,102450.02
2019-01-05T16:58:39.572Z,102451.70
2019-01-05T17:01:36.532Z,102453.86
2019-01-05T17:04:31.655Z,102459.52
2019-01-05T17:07:21.449Z,102460.75
2019-01-05T17:10:09.207Z,102459.05
2019-01-05T17:13:04.531Z,102459.80
2019-01-05T17:15:52.085Z,102450.34
2019-01-05T17:18:44.167Z,102454.16
2019-01-05T17:21:33.564Z,102452.91
2019-01-05T17:24:21.011Z,102460.68
2019-01-05T17:27:08.796Z,102457.62
2019-01-05T17:30:15.642Z,102460.19
2019-01-05T17:33:03.316Z,102449.45
2019-01-05T17:35:52.497Z,102463.65
2019-01-05T17:38:47.552Z,102456.73
2019-01-05T17:41:45.503Z,102461.56
2019-01-05T17:44:40.747Z,102456.38
2019-01-05T17:47:44.815Z,102462.38
2019-01-05T17:50:39.716Z,102458.00
2019-01-05T17:53:27.015Z,102452.02
2019-01-05T17:56:12.892Z,102455.02
2019-01-05T17:59:00.626Z,102450.28
2019-01-05T18:01:58.963Z,102447.22
2019-01-05T18:04:58.205Z,102446.77
2019-01-05T18:07:45.857Z,102452.78
2019-01-05T18:10:36.303Z,102450.66
2019-01-05T18:13:23.949Z,102448.06
2019-01-05T18:16:15.960Z,102453.65
2019-01-05T18:19:16.583Z,102457.13
2019-01-05T18:22:00.267Z,102454.97
2019-01-05T18:24:47.626Z,102449.80
2019-01-05T18:27:34.998Z,102458.42
2019-01-05T18:30:42.820Z,102455.81
2019-01-05T18:33:37.930Z,102457.55
2019-01-05T18:36:36.142Z,102451.02
2019-01-05T18:39:35.538Z,102460.11
2019-01-05T18:42:30.989Z,102465.70
2019-01-05T18:45:18.438Z,102466.16
2019-01-05T18:48:22.499Z,102452.30
2019-01-05T18:51:10.043Z,102460.06
2019-01-05T18:53:57.716Z,102451.41
2019-01-05T18:57:03.459Z,102456.27
2019-01-05T18:59:55.515Z,102446.71
2019-01-05T19:03:03.360Z,102452.36
2019-01-05T19:05:53.602Z,102452.70
2019-01-05T19:08:41.333Z,102456.63
2019-01-05T19:11:36.556Z,102463.04
2019-01-05T19:14:24.410Z,102451.00
2019-01-05T19:17:28.602Z,102454.05
2019-01-05T19:20:20.416Z,102455.34
2019-01-05T19:23:00.656Z,102454.88
2019-01-05T19:25:55.524Z,102456.58
2019-01-05T19:28:43.085Z,102460.43
2019-01-05T19:31:30.655Z,102454.00
2019-01-05T19:34:39.125Z,102450.13
2019-01-05T19:37:47.742Z,102457.52
2019-01-05T19:40:43.489Z,102458.75
2019-01-05T19:43:51.757Z,102464.73
2019-01-05T19:46:55.847Z,102466.84
2019-01-05T19:49:55.266Z,102468.69
2019-01-05T19:52:56.649Z,102478.67
2019-01-05T19:56:05.194Z,102480.30
2019-01-05T19:59:12.064Z,102476.84
2019-01-05T20:02:20.316Z,102485.88
2019-01-05T20:05:23.534Z,102479.44
2019-01-05T20:08:13.205Z,102480.72
2019-01-05T20:11:15.488Z,102481.61
2019-01-05T20:14:19.009Z,102485.05
2019-01-05T20:17:28.256Z,102483.79
2019-01-05T20:20:36.668Z,102485.38
2019-01-05T20:23:40.624Z,102486.74
2019-01-05T20:26:43.367Z,102482.90
2019-01-05T20:29:33.020Z,102473.83
2019-01-05T20:32:34.269Z,102472.53
2019-01-05T20:35:42.822Z,102481.11
2019-01-05T20:38:45.147Z,102482.88
2019-01-05T20:41:37.955Z,102496.22
2019-01-05T20:44:25.561Z,102491.91
2019-01-05T20:47:24.501Z,102497.52
2019-01-05T20:50:12.572Z,102497.91
2019-01-05T20:53:08.224Z,102499.27
2019-01-05T20:55:55.927Z,102504.43
2019-01-05T20:58:43.795Z,102497.92
2019-01-05T21:01:45.266Z,102497.50
2019-01-05T21:04:37.456Z,102500.59
2019-01-05T21:07:39.372Z,102497.98
2019-01-05T21:10:28.187Z,102507.84
2019-01-05T21:13:23.696Z,102502.24
2019-01-05T21:16:11.714Z,102505.17
2019-01-05T21:19:19.417Z,102504.36
2019-01-05T21:22:07.319Z,102504.37
2019-01-05T21:24:56.657Z,102510.36
2019-01-05T21:28:04.155Z,102508.66
2019-01-05T21:31:05.297Z,102501.36
2019-01-05T21:33:53.213Z,102493.61
2019-01-05T21:36:48.848Z,102491.37
2019-01-05T21:39:46.952Z,102487.42
2019-01-05T21:42:48.811Z,102491.37
2019-01-05T21:45:40.830Z,102498.65
2019-01-05T21:48:29.015Z,102495.25
2019-01-05T21:51:21.638Z,102487.01
2019-01-05T21:54:09.434Z,102481.84
2019-01-05T21:57:04.799Z,102476.66
2019-01-05T21:59:53.048Z,102480.95
2019-01-05T22:02:37.754Z,102469.78
2019-01-05T22:05:22.428Z,102470.23
2019-01-05T22:08:14.772Z,102471.09
2019-01-05T22:11:06.122Z,102484.01
2019-01-05T22:13:55.768Z,102484.16
2019-01-05T22:16:43.621Z,102483.63
2019-01-05T22:19:41.832Z,102484.91
2019-01-05T22:22:29.506Z,102480.13
2019-01-05T22:25:25.005Z,102485.31
2019-01-05T22:28:29.431Z,102478.38
2019-01-05T22:31:17.380Z,102482.23
2019-01-05T22:34:02.857Z,102477.00
2019-01-05T22:36:58.052Z,102477.00
2019-01-05T22:39:53.220Z,102484.72
2019-01-05T22:42:41.831Z,102476.16
2019-01-05T22:45:45.575Z,102484.73
2019-01-05T22:48:37.832Z,102480.86
2019-01-05T22:51:36.099Z,102480.07
2019-01-05T22:54:24.259Z,102483.05
2019-01-05T22:57:13.955Z,102480.84
2019-01-05T23:03:31.072Z,102468.33
2019-01-05T23:06:40.095Z,102472.56
2019-01-05T23:09:38.316Z,102469.72
2019-01-05T23:12:47.106Z,102467.84
2019-01-05T23:15:47.937Z,102468.69
2019-01-05T23:18:56.340Z,102464.01
2019-01-05T23:21:57.050Z,102473.86
2019-01-05T23:25:05.535Z,102480.40
2019-01-05T23:28:06.928Z,102481.73
2019-01-05T23:31:10.799Z,102473.94
2019-01-05T23:34:07.107Z,102485.53
2019-01-05T23:36:56.642Z,102486.02
2019-01-05T23:39:44.415Z,102490.71
2019-01-05T23:42:36.623Z,102484.67
2019-01-05T23:45:24.296Z,102484.19
2019-01-05T23:48:12.162Z,102483.34
2019-01-05T23:51:00.122Z,102483.38
2019-01-05T23:54:07.220Z,102483.45
2019-01-05T23:56:54.953Z,102491.59
2019-01-05T23:59:53.883Z,102490.71
